createdAt,value
2019-03-11T00:01:42.915Z,100205.26
2019-03-11T00:05:46.439Z,100199.81
2019-03-11T00:09:50.057Z,100204.95
2019-03-11T00:13:53.766Z,100199.44
2019-03-11T00:17:57.310Z,100203.77
2019-03-11T00:22:01.006Z,100207.27
2019-03-11T00:26:04.708Z,100204.28
2019-03-11T00:30:10.773Z,100207.42
2019-03-11T00:34:14.311Z,100205.33
2019-03-11T00:38:18.003Z,100210.84
2019-03-11T00:42:21.546Z,100205.11
2019-03-11T00:46:25.261Z,100199.51
2019-03-11T00:50:28.849Z,100202.18
2019-03-11T00:54:32.368Z,100191.88
2019-03-11T00:58:35.971Z,100200.01
2019-03-11T01:02:39.586Z,100195.60
2019-03-11T01:06:43.307Z,100190.97
2019-03-11T01:10:46.911Z,100186.79
2019-03-11T01:14:50.471Z,100187.36
2019-03-11T01:18:54.241Z,100180.65
2019-03-11T01:22:57.854Z,100176.09
2019-03-11T01:27:01.469Z,100172.69
2019-03-11T01:31:05.295Z,100169.64
2019-03-11T01:35:10.026Z,100162.25
2019-03-11T01:39:13.825Z,100157.70
2019-03-11T01:43:17.541Z,100158.30
2019-03-11T01:47:21.277Z,100151.31
2019-03-11T01:51:25.101Z,100154.80
2019-03-11T01:55:28.967Z,100155.05
2019-03-11T01:59:32.534Z,100149.16
2019-03-11T02:03:36.246Z,100148.34
2019-03-11T02:07:39.923Z,100149.69
2019-03-11T02:11:43.578Z,100153.19
2019-03-11T02:15:47.297Z,100150.20
2019-03-11T02:19:51.005Z,100150.06
2019-03-11T02:23:54.727Z,100150.13
2019-03-11T02:27:58.346Z,100152.74
2019-03-11T02:32:02.069Z,100145.44
2019-03-11T02:36:05.780Z,100150.13
2019-03-11T02:40:14.783Z,100145.88
2019-03-11T02:44:18.450Z,100147.38
2019-03-11T02:48:22.571Z,100142.37
2019-03-11T02:52:26.379Z,100141.48
2019-03-11T02:56:29.890Z,100137.01
2019-03-11T03:00:33.494Z,100135.66
2019-03-11T03:04:41.727Z,100129.84
2019-03-11T03:08:45.257Z,100122.47
2019-03-11T03:12:48.964Z,100117.99
2019-03-11T03:16:52.665Z,100118.66
2019-03-11T03:20:56.272Z,100114.91
2019-03-11T03:25:00.459Z,100112.67
2019-03-11T03:29:04.218Z,100114.47
2019-03-11T03:33:09.893Z,100113.80
2019-03-11T03:37:13.715Z,100106.99
2019-03-11T03:41:17.229Z,100109.45
2019-03-11T03:45:29.018Z,100107.14
2019-03-11T03:49:31.974Z,100093.05
2019-03-11T03:53:35.939Z,100094.41
2019-03-11T03:57:39.656Z,100100.82
2019-03-11T04:01:43.331Z,100095.59
2019-03-11T04:05:46.876Z,100096.56
2019-03-11T04:09:50.490Z,100094.33
2019-03-11T04:13:54.104Z,100097.46
2019-03-11T04:17:57.720Z,100097.62
2019-03-11T04:22:01.437Z,100092.77
2019-03-11T04:26:05.253Z,100098.95
2019-03-11T04:30:15.110Z,100093.42
2019-03-11T04:34:18.835Z,100085.95
2019-03-11T04:38:22.442Z,100082.09
2019-03-11T04:42:27.826Z,100086.72
2019-03-11T04:46:31.874Z,100089.77
2019-03-11T04:50:35.451Z,100096.32
2019-03-11T04:54:39.048Z,100096.03
2019-03-11T04:58:42.865Z,100084.53
2019-03-11T05:02:46.458Z,100082.52
2019-03-11T05:06:50.195Z,100085.44
2019-03-11T05:10:53.808Z,100086.39
2019-03-11T05:14:57.422Z,100084.00
2019-03-11T05:19:01.346Z,100078.42
2019-03-11T05:23:04.960Z,100084.02
2019-03-11T05:27:08.508Z,100085.51
2019-03-11T05:31:12.190Z,100084.22
2019-03-11T05:35:15.915Z,100083.63
2019-03-11T05:39:19.515Z,100078.72
2019-03-11T05:43:23.251Z,100086.70
2019-03-11T05:47:26.842Z,100094.66
2019-03-11T05:51:31.936Z,100092.73
2019-03-11T05:55:35.816Z,100101.83
2019-03-11T05:59:39.429Z,100098.47
2019-03-11T06:03:43.039Z,100107.94
2019-03-11T06:07:46.754Z,100109.36
2019-03-11T06:11:50.367Z,100105.23
2019-03-11T06:15:53.986Z,100113.52
2019-03-11T06:20:02.210Z,100113.22
2019-03-11T06:24:06.081Z,100105.00
2019-03-11T06:28:09.737Z,100113.07
2019-03-11T06:32:13.352Z,100111.34
2019-03-11T06:36:16.967Z,100115.89
2019-03-11T06:40:20.682Z,100117.25
2019-03-11T06:44:24.295Z,100114.18
2019-03-11T06:48:27.909Z,100114.42
2019-03-11T06:52:31.523Z,100125.13
2019-03-11T06:56:35.039Z,100122.22
2019-03-11T07:00:38.650Z,100123.44
2019-03-11T07:04:42.261Z,100125.97
2019-03-11T07:08:45.979Z,100128.64
2019-03-11T07:12:49.595Z,100143.00
2019-03-11T07:16:53.616Z,100132.64
2019-03-11T07:20:57.156Z,100148.45
2019-03-11T07:25:01.048Z,100145.94
2019-03-11T07:29:04.753Z,100141.36
2019-03-11T07:33:08.374Z,100149.27
2019-03-11T07:37:12.072Z,100162.05
2019-03-11T07:41:15.821Z,100155.62
2019-03-11T07:45:19.525Z,100161.66
2019-03-11T07:49:26.210Z,100158.87
2019-03-11T07:53:29.836Z,100176.37
2019-03-11T07:57:33.445Z,100176.53
2019-03-11T08:01:37.154Z,100163.05
2019-03-11T08:05:40.868Z,100178.67
2019-03-11T08:09:44.482Z,100182.36
2019-03-11T08:13:48.096Z,100175.92
2019-03-11T08:17:51.808Z,100178.02
2019-03-11T08:21:55.636Z,100187.24
2019-03-11T08:25:59.249Z,100195.68
2019-03-11T08:30:02.857Z,100194.94
2019-03-11T08:34:06.470Z,100202.16
2019-03-11T08:38:10.084Z,100206.42
2019-03-11T08:42:13.700Z,100204.38
2019-03-11T08:46:17.312Z,100215.16
2019-03-11T08:50:22.467Z,100216.79
2019-03-11T08:54:26.995Z,100217.00
2019-03-11T08:58:30.615Z,100199.45
2019-03-11T09:02:34.238Z,100223.44
2019-03-11T09:06:37.839Z,100218.19
2019-03-11T09:10:41.461Z,100226.02
2019-03-11T09:14:45.067Z,100224.05
2019-03-11T09:18:49.625Z,100235.69
2019-03-11T09:22:53.323Z,100248.48
2019-03-11T09:26:57.036Z,100255.38
2019-03-11T09:31:00.661Z,100253.90
2019-03-11T09:35:05.222Z,100268.50
2019-03-11T09:39:11.139Z,100264.81
2019-03-11T09:43:14.771Z,100278.91
2019-03-11T09:47:18.478Z,100278.06
2019-03-11T09:51:22.124Z,100282.61
2019-03-11T09:55:31.866Z,100285.95
2019-03-11T09:59:35.467Z,100285.87
2019-03-11T10:03:39.081Z,100291.20
2019-03-11T10:07:42.707Z,100294.05
2019-03-11T10:11:46.408Z,100298.05
2019-03-11T10:15:50.023Z,100303.44
2019-03-11T10:19:53.635Z,100302.91
2019-03-11T10:24:00.019Z,100308.33
2019-03-11T10:28:03.628Z,100316.16
2019-03-11T10:32:07.341Z,100315.40
2019-03-11T10:36:11.057Z,100312.69
2019-03-11T10:40:22.146Z,100313.78
2019-03-11T10:44:25.760Z,100317.72
2019-03-11T10:48:37.031Z,100325.50
2019-03-11T10:52:34.662Z,100327.05
2019-03-11T10:56:38.242Z,100318.89
2019-03-11T11:00:42.168Z,100313.91
2019-03-11T11:04:47.928Z,100327.19
2019-03-11T11:08:51.133Z,100328.64
2019-03-11T11:12:54.861Z,100347.16
2019-03-11T11:16:58.369Z,100344.70
2019-03-11T11:21:01.969Z,100346.34
2019-03-11T11:25:07.736Z,100354.70
2019-03-11T11:29:11.371Z,100350.80
2019-03-11T11:33:15.068Z,100362.18
2019-03-11T11:37:18.735Z,100364.56
2019-03-11T11:41:22.394Z,100364.74
2019-03-11T11:45:28.063Z,100373.95
2019-03-11T11:49:31.725Z,100372.81
2019-03-11T11:53:35.392Z,100376.47
2019-03-11T11:57:39.003Z,100374.46
2019-03-11T12:01:42.613Z,100380.47
2019-03-11T12:05:46.327Z,100377.14
2019-03-11T12:09:50.189Z,100382.81
2019-03-11T12:13:53.862Z,100381.22
2019-03-11T12:17:57.457Z,100379.72
2019-03-11T12:22:00.992Z,100394.64
2019-03-11T12:26:04.818Z,100400.63
2019-03-11T12:30:26.174Z,100401.25
2019-03-11T12:34:29.759Z,100407.20
2019-03-11T12:38:33.368Z,100413.20
2019-03-11T12:42:36.913Z,100410.69
2019-03-11T12:46:40.444Z,100406.53
2019-03-11T12:50:44.205Z,100418.48
2019-03-11T12:54:48.136Z,100418.59
2019-03-11T12:58:51.756Z,100418.52
2019-03-11T13:02:55.695Z,100417.83
2019-03-11T13:06:59.278Z,100420.48
2019-03-11T13:11:02.915Z,100416.77
2019-03-11T13:15:08.753Z,100419.31
2019-03-11T13:19:13.458Z,100428.27
2019-03-11T13:23:17.321Z,100430.94
2019-03-11T13:27:20.926Z,100441.42
2019-03-11T13:31:25.576Z,100445.11
2019-03-11T13:35:29.125Z,100441.44
2019-03-11T13:39:32.651Z,100433.86
2019-03-11T13:43:36.634Z,100455.81
2019-03-11T13:47:40.338Z,100458.83
2019-03-11T13:51:43.987Z,100456.08
2019-03-11T13:55:47.558Z,100451.36
2019-03-11T13:59:51.170Z,100451.55
2019-03-11T14:03:54.781Z,100456.73
2019-03-11T14:07:58.502Z,100458.34
2019-03-11T14:12:02.121Z,100463.54
2019-03-11T14:16:05.718Z,100465.44
2019-03-11T14:20:11.583Z,100466.00
2019-03-11T14:24:16.227Z,100476.98
2019-03-11T14:28:19.867Z,100485.86
2019-03-11T14:32:23.405Z,100491.48
2019-03-11T14:36:26.969Z,100490.89
2019-03-11T14:40:30.785Z,100500.47
2019-03-11T14:44:34.422Z,100497.91
2019-03-11T14:48:38.085Z,100509.67
2019-03-11T14:52:41.848Z,100518.22
2019-03-11T14:56:45.444Z,100527.08
2019-03-11T15:00:49.264Z,100521.30
2019-03-11T15:04:52.817Z,100527.06
2019-03-11T15:08:59.668Z,100534.08
2019-03-11T15:13:04.540Z,100537.02
2019-03-11T15:17:08.121Z,100541.78
2019-03-11T15:21:14.507Z,100555.47
2019-03-11T15:25:19.135Z,100546.27
2019-03-11T15:29:22.769Z,100564.86
2019-03-11T15:33:26.369Z,100567.22
2019-03-11T15:37:30.085Z,100571.97
2019-03-11T15:41:33.696Z,100576.58
2019-03-11T15:45:38.913Z,100568.67
2019-03-11T15:49:42.777Z,100575.13
2019-03-11T15:53:46.389Z,100583.95
2019-03-11T15:57:50.106Z,100586.53
2019-03-11T16:01:53.714Z,100586.53
2019-03-11T16:05:57.431Z,100597.42
2019-03-11T16:10:01.142Z,100600.12
2019-03-11T16:14:04.801Z,100613.36
2019-03-11T16:18:08.478Z,100621.81
2019-03-11T16:22:22.465Z,100633.55
2019-03-11T16:26:17.460Z,100635.05
2019-03-11T16:30:25.126Z,100638.78
2019-03-11T16:34:30.204Z,100648.89
2019-03-11T16:38:33.809Z,100653.41
2019-03-11T16:42:37.545Z,100661.95
2019-03-11T16:46:41.351Z,100660.14
2019-03-11T16:50:45.062Z,100666.73
2019-03-11T16:54:48.768Z,100683.63
2019-03-11T16:58:52.392Z,100685.40
2019-03-11T17:02:56.133Z,100694.36
2019-03-11T17:06:59.725Z,100706.59
2019-03-11T17:11:03.441Z,100716.35
2019-03-11T17:15:08.588Z,100725.77
2019-03-11T17:19:12.200Z,100737.75
2019-03-11T17:23:19.092Z,100745.40
2019-03-11T17:27:22.703Z,100759.63
2019-03-11T17:31:26.322Z,100768.20
2019-03-11T17:35:33.124Z,100773.81
2019-03-11T17:39:36.824Z,100792.06
2019-03-11T17:43:40.541Z,100799.93
2019-03-11T17:47:44.567Z,100804.33
2019-03-11T17:51:48.232Z,100809.27
2019-03-11T17:55:51.910Z,100821.10
2019-03-11T17:59:55.515Z,100840.05
2019-03-11T18:03:59.219Z,100861.57
2019-03-11T18:08:03.046Z,100863.68
2019-03-11T18:12:06.655Z,100876.31
2019-03-11T18:16:10.265Z,100891.25
2019-03-11T18:20:16.044Z,100904.04
2019-03-11T18:24:19.993Z,100924.81
2019-03-11T18:28:24.162Z,100948.25
2019-03-11T18:32:27.800Z,100939.75
2019-03-11T18:36:31.593Z,100940.80
2019-03-11T18:40:35.227Z,100941.89
2019-03-11T18:44:38.948Z,100960.31
2019-03-11T18:48:42.625Z,100985.31
2019-03-11T18:52:46.478Z,100982.34
2019-03-11T18:56:50.114Z,100995.79
2019-03-11T19:00:54.026Z,101000.42
2019-03-11T19:04:57.725Z,101009.52
2019-03-11T19:09:01.384Z,101019.17
2019-03-11T19:13:05.496Z,101013.70
2019-03-11T19:17:09.492Z,101029.23
2019-03-11T19:21:13.235Z,101037.23
2019-03-11T19:25:17.433Z,101046.16
2019-03-11T19:29:21.081Z,101046.20
2019-03-11T19:33:24.776Z,101041.14
2019-03-11T19:37:28.506Z,101050.50
2019-03-11T19:41:32.151Z,101057.33
2019-03-11T19:45:35.832Z,101067.58
2019-03-11T19:49:39.708Z,101067.52
2019-03-11T19:53:43.553Z,101074.09
2019-03-11T19:57:47.359Z,101085.17
2019-03-11T20:01:50.993Z,101106.39
2019-03-11T20:05:54.807Z,101118.28
2019-03-11T20:09:58.437Z,101122.97
2019-03-11T20:14:02.119Z,101124.14
2019-03-11T20:18:05.850Z,101132.72
2019-03-11T20:22:09.653Z,101161.00
2019-03-11T20:26:14.621Z,101169.09
2019-03-11T20:30:23.234Z,101174.74
2019-03-11T20:34:27.215Z,101184.35
2019-03-11T20:38:31.342Z,101183.09
2019-03-11T20:42:35.394Z,101185.04
2019-03-11T20:46:39.290Z,101182.70
2019-03-11T20:50:43.178Z,101195.13
2019-03-11T20:54:47.127Z,101204.49
2019-03-11T20:58:52.707Z,101205.27
2019-03-11T21:02:59.822Z,101211.50
2019-03-11T21:07:02.464Z,101222.52
2019-03-11T21:11:06.302Z,101233.23
2019-03-11T21:15:12.851Z,101244.69
2019-03-11T21:19:16.689Z,101247.00
2019-03-11T21:23:20.404Z,101250.02
2019-03-11T21:27:25.552Z,101259.38
2019-03-11T21:31:29.171Z,101275.89
2019-03-11T21:35:33.082Z,101280.39
2019-03-11T21:39:37.086Z,101284.11
2019-03-11T21:43:40.797Z,101287.78
2019-03-11T21:47:45.114Z,101291.59
2019-03-11T21:51:48.762Z,101293.91
2019-03-11T21:55:52.529Z,101303.83
2019-03-11T21:59:56.539Z,101308.45
2019-03-11T22:04:01.526Z,101313.88
2019-03-11T22:08:05.246Z,101310.91
2019-03-11T22:12:10.596Z,101328.73
2019-03-11T22:16:14.834Z,101330.13
2019-03-11T22:20:19.171Z,101342.41
2019-03-11T22:24:23.695Z,101350.06
2019-03-11T22:28:27.290Z,101344.29
2019-03-11T22:32:31.036Z,101346.95
2019-03-11T22:36:34.621Z,101343.27
2019-03-11T22:40:38.694Z,101345.78
2019-03-11T22:44:42.409Z,101355.65
2019-03-11T22:48:46.575Z,101359.17
2019-03-11T22:52:50.722Z,101373.22
2019-03-11T22:56:54.648Z,101374.96
2019-03-11T23:01:00.953Z,101389.87
2019-03-11T23:05:05.957Z,101409.16
2019-03-11T23:09:10.688Z,101415.34
2019-03-11T23:13:14.685Z,101416.53
2019-03-11T23:17:18.334Z,101428.25
2019-03-11T23:21:23.394Z,101426.34
2019-03-11T23:25:27.002Z,101423.56
2019-03-11T23:29:30.789Z,101430.02
2019-03-11T23:33:34.649Z,101437.39
2019-03-11T23:37:38.243Z,101430.10
2019-03-11T23:41:42.062Z,101434.38
2019-03-11T23:45:45.909Z,101428.56
2019-03-11T23:49:50.198Z,101425.34
2019-03-11T23:53:53.720Z,101436.28
2019-03-11T23:57:57.340Z,101431.80
